MP21 weather

Alvaro Berroa Airport
Nueva California, Chiriquí Province, Panama

Public forecast

Using degrees Celsius for public forecast. Weather courtesy of forecast.io.

Closest aviation weather report (METAR) to Alvaro Berroa Airport

Report is more than 6 hours old.

Closest report is Paso Canoas Airport, 18.6 nm (34.4 km) SW. Retrieved 2012/01/18 15:00 UTC (8 years ago):

MRPC 181500Z 08012KT 9999 SKC 23/13 A3003 NOSIG

Closest aviation forecast (TAF) to Alvaro Berroa Airport

Forecast is more than 6 hours old.

Closest forecast is Enrique Malek International Airport, 26.5 nm (49.2 km) SSE. Retrieved 2020/05/31 18:51 UTC (10 hours ago):

TAF TAF MPDA 311720Z 3118/0106 22007KT 9999 SCT016 SCT090 TEMPO 3119/3123 5000 TSRA SCT010 SCT014CB BKN090 TEMPO 3123/0103 33003KT 8000 -RA SCT016 BKN090 BECMG 0103/0106 NSW